Abbot, Maine
Current Conditions -  °F | °C
As of 11:35 AM on Tuesday 27 Jan 2015 (Local Time) from KWVL Reporting Station
Overcast Overcast  
Wind Chill: -25°   Ceiling: 600
Heat Index: -13°   Visibility: 0.25mi
Dew Point: -14°   Wind: 24mph
Humidity: 92%   Direction: 20°NNE
Pressure: 29.66"   Gusts: 36mph
Location:  44.94°N, 69.7°W
Report Text: KWVL 271635Z 02021G31KT 1/4SM OVC006 M13/M14 A2966 RMK AO1
Loading
Personal Weather Stations






























Interactive Weather Map New forecast layout! Learn more

10-Day Weather Forecast

Advertisements
Track Severe Weather on mobile